Airfield :
LOGIN :

Register | Disclaimer

   EN    FR    IT 

 










Legend :    VFR   Marginal VFR   IFR   Intensive IFR   Very Intensive IFR
Visi :
Ceiling :
>= 8 km
>= 3000ft
5 to 8 km
1000 to 3000 ft
1500m to 5 km
500 to 1000 ft
800 to 1500m
200 to 500 ft
< 800m
< 200 ft
Symbols :   Thunderstorms  Fog  Heavy snow  Heavy precipitations  Wind > 20 kt
SIGMETs :     Misc.  Thunderstorms  Icing  Turbulence  Mountain Waves  Volcanic Ashes







- Airport Elevation : 291 ft
- IATA code : ORY
- Download approach charts


LFPO - Paris-Orly

CURRENT METAR :
  • 182100Z 24008KT 210V270 9999 SCT028 BKN050 07/04 Q1022 NOSIG

EXPIRED METARs :
  • 182030Z 24008KT 9999 BKN028 07/04 Q1022 NOSIG
  • 182000Z 25009KT 9999 BKN030 08/04 Q1023 NOSIG
  • 181930Z 25007KT 210V280 9999 BKN030 08/05 Q1023 NOSIG
  • 181900Z 24008KT 9999 BKN033 08/05 Q1023 NOSIG
  • 181830Z 24009KT 9999 BKN036 08/05 Q1023 NOSIG

TAF TAF LFPO
Valid from the 18 at 18:00 until the 20 at 00:00 UTC


181700Z 1818/1924 23006KT 9999 BKN040
PROB30
TEMPO 1821/1823 -RA BKN012
BECMG 1823/1902 -RA BKN012
TEMPO 1901/1905 2500 -DZRA OVC004
BECMG 1905/1908 34006KT NSW BKN020
BECMG 1911/1913 SCT030
BECMG 1915/1918 CAVOK
ATIS : +33 1 49 75 65 80
No reported NOTAMs for that airfield.
1 SIGMET reported for the Paris FIR (LFFF) :
 
Severe icing
LFFF SIGMET 1 VALID 182100/190100 LFPW
LFFF PARIS FIR/UIR SEV ICE OBS WI N5045 E00315 - N4930 E00600 - N4915 E00515 - N5000 E00300 FL080/220 MOV SE 20KT NC=



MET'MAP, your aeronautical weather chart ! - Copyright ORBIFLY December 2007 - Disclaimer

ORBIFLY MET'MAP TEAM :

Programming & Development : Alexandra Zaïnal
Concept & Development : Baudouin d'Aumeries
Co-Development & Prog : Marc-Olivier Méhu
Technical & hardware support : Manuel Goepfert

Contact : metmap@orbifly.com




SOURCES & CREDITS :

   NOAA